Terminal Aerodrome Forecast
Issued by NWS

Home | Current Version | Previous Version | Text Only | Print | Product List | Glossary On
Versions: 1 2 3 4 5 6 7 8 9 10 11 12 13 14 15 16 17 18 19 20
000
FTUS43 KLOT 232103 AAA
TAFGYY
TAF AMD
KGYY 232103Z 2321/2418 01010KT P6SM BKN100
     FM240000 04010KT P6SM BKN045
     FM240200 08010KT P6SM OVC030
     FM240500 05005KT P6SM VCSH OVC015=

USA.gov is the U.S. government's official web portal to all federal, state and local government web resources and services.